Sunday, July 22, 2018, 4:32 PM GMT
Back to Local

CWPD, Parc Des Laurentid

Location: , , Canada Lat: 47.567
Local Time: 4:32 PM GMT (16:32 GMT) Lon: -71.233
Time Zone: GMT Elev: 2634 ft

Show me the last for .
Show Coded

Time T Td Feel RH Dir Speed Gust Alt SLP Vis Weather Sky Remarks
2018-07-22 16:00 76 42 - 29 150° 5 - - 30.09 0 None
2018-07-22 15:00 74 40 - 28 160° 6 - - 30.09 0 None
2018-07-22 14:00 73 46 - 38 170° 5 - - 30.08 0 None
2018-07-22 13:00 69 52 - 54 170° 5 - - 30.07 0 None
2018-07-22 12:00 65 55 - 71 150° 2 - - 30.09 0 None
2018-07-22 11:00 57 55 - 95 - Calm - - 30.09 0 None
2018-07-22 10:00 46 46 - 98 210° 2 - - 30.11 0 None
2018-07-22 09:00 46 45 45 97 200° 3 - - 30.10 0 None
2018-07-22 08:00 48 47 - 97 200° 2 - - 30.08 0 None
2018-07-22 07:00 50 49 - 96 210° 3 - - 30.08 0 None
2018-07-22 06:00 51 50 - 93 210° 5 - - 30.09 0 None
2018-07-22 05:00 53 51 - 91 210° 5 - - 30.08 0 None
2018-07-22 04:00 55 52 - 88 210° 5 - - 30.08 0 None
2018-07-22 03:00 57 53 - 84 210° 3 - - 30.07 0 None
2018-07-22 02:00 60 54 - 79 200° 3 - - 30.07 0 None
2018-07-22 01:00 66 55 - 66 210° 5 - - 30.05 0 None
2018-07-22 00:00 71 53 76 52 200° 2 - - 30.04 0 None
2018-07-21 23:00 75 50 77 41 170° 3 - - 30.03 0 None
2018-07-21 22:00 80 49 - 34 170° 5 - - 30.04 0 None
2018-07-21 21:00 80 48 - 31 200° 6 - - 30.04 0 None
2018-07-21 20:00 81 49 - 32 220° 5 - - 30.04 0 None
2018-07-21 19:00 81 49 - 32 160° 5 - - 30.04 0 None
2018-07-21 18:00 78 55 79 45 340° 3 - - 30.05 0 None
2018-07-21 17:00 80 55 80 42 160° 6 - - 30.05 0 None

Support USWX by starting your Amazon purchase here.